sensor_id;sensor_type;location;lat;lon;timestamp;P1;durP1;ratioP1;P2;durP2;ratioP2
69892;SDS011;61212;42.688;22.176;2022-08-18T00:04:36;11.80;;;6.13;;
69892;SDS011;61212;42.688;22.176;2022-08-18T00:07:04;8.63;;;5.60;;
69892;SDS011;61212;42.688;22.176;2022-08-18T00:09:30;13.90;;;6.18;;
69892;SDS011;61212;42.688;22.176;2022-08-18T00:11:56;13.10;;;7.15;;
69892;SDS011;61212;42.688;22.176;2022-08-18T00:14:22;13.30;;;6.53;;
69892;SDS011;61212;42.688;22.176;2022-08-18T00:16:49;9.95;;;6.30;;
69892;SDS011;61212;42.688;22.176;2022-08-18T00:19:16;11.40;;;6.57;;
69892;SDS011;61212;42.688;22.176;2022-08-18T00:21:42;11.57;;;6.47;;
69892;SDS011;61212;42.688;22.176;2022-08-18T00:24:08;11.93;;;5.80;;
69892;SDS011;61212;42.688;22.176;2022-08-18T00:26:35;11.77;;;6.22;;
69892;SDS011;61212;42.688;22.176;2022-08-18T00:29:01;12.38;;;5.95;;
69892;SDS011;61212;42.688;22.176;2022-08-18T00:31:27;12.93;;;6.30;;
69892;SDS011;61212;42.688;22.176;2022-08-18T00:33:53;8.65;;;6.07;;
69892;SDS011;61212;42.688;22.176;2022-08-18T00:36:19;14.70;;;7.38;;
69892;SDS011;61212;42.688;22.176;2022-08-18T00:38:45;12.30;;;6.38;;
69892;SDS011;61212;42.688;22.176;2022-08-18T00:41:11;10.15;;;6.28;;
69892;SDS011;61212;42.688;22.176;2022-08-18T00:43:42;14.70;;;6.55;;
69892;SDS011;61212;42.688;22.176;2022-08-18T00:46:11;8.63;;;5.85;;
69892;SDS011;61212;42.688;22.176;2022-08-18T00:48:56;11.50;;;5.95;;
69892;SDS011;61212;42.688;22.176;2022-08-18T00:51:32;12.73;;;6.95;;
69892;SDS011;61212;42.688;22.176;2022-08-18T00:54:12;13.95;;;5.78;;
69892;SDS011;61212;42.688;22.176;2022-08-18T00:56:47;9.07;;;5.50;;
69892;SDS011;61212;42.688;22.176;2022-08-18T00:59:21;12.35;;;6.57;;
69892;SDS011;61212;42.688;22.176;2022-08-18T01:01:49;9.75;;;5.45;;
69892;SDS011;61212;42.688;22.176;2022-08-18T01:04:21;10.55;;;5.93;;
69892;SDS011;61212;42.688;22.176;2022-08-18T01:06:51;7.68;;;5.57;;
69892;SDS011;61212;42.688;22.176;2022-08-18T01:09:18;10.65;;;6.55;;
69892;SDS011;61212;42.688;22.176;2022-08-18T01:11:44;8.40;;;5.97;;
69892;SDS011;61212;42.688;22.176;2022-08-18T01:14:10;19.02;;;6.45;;
69892;SDS011;61212;42.688;22.176;2022-08-18T01:16:40;10.68;;;6.10;;
69892;SDS011;61212;42.688;22.176;2022-08-18T01:19:25;9.00;;;6.05;;
69892;SDS011;61212;42.688;22.176;2022-08-18T01:22:34;12.18;;;6.43;;
69892;SDS011;61212;42.688;22.176;2022-08-18T01:24:57;12.45;;;6.47;;
69892;SDS011;61212;42.688;22.176;2022-08-18T01:27:43;9.43;;;5.82;;
69892;SDS011;61212;42.688;22.176;2022-08-18T01:30:11;8.82;;;5.70;;
69892;SDS011;61212;42.688;22.176;2022-08-18T01:32:37;10.27;;;5.85;;
69892;SDS011;61212;42.688;22.176;2022-08-18T01:35:05;8.00;;;5.80;;
69892;SDS011;61212;42.688;22.176;2022-08-18T01:37:33;10.10;;;5.97;;
69892;SDS011;61212;42.688;22.176;2022-08-18T01:39:59;11.65;;;6.63;;
69892;SDS011;61212;42.688;22.176;2022-08-18T01:42:30;11.20;;;5.95;;
69892;SDS011;61212;42.688;22.176;2022-08-18T01:44:56;12.15;;;6.32;;
69892;SDS011;61212;42.688;22.176;2022-08-18T01:47:22;9.88;;;6.03;;
69892;SDS011;61212;42.688;22.176;2022-08-18T01:49:48;12.05;;;5.82;;
69892;SDS011;61212;42.688;22.176;2022-08-18T01:52:18;11.52;;;5.78;;
69892;SDS011;61212;42.688;22.176;2022-08-18T01:54:46;9.50;;;5.90;;
69892;SDS011;61212;42.688;22.176;2022-08-18T01:57:12;11.50;;;6.15;;
69892;SDS011;61212;42.688;22.176;2022-08-18T01:59:40;8.75;;;5.60;;
69892;SDS011;61212;42.688;22.176;2022-08-18T02:02:07;10.77;;;6.05;;
69892;SDS011;61212;42.688;22.176;2022-08-18T02:04:33;7.88;;;5.55;;
69892;SDS011;61212;42.688;22.176;2022-08-18T02:07:00;12.52;;;5.90;;
69892;SDS011;61212;42.688;22.176;2022-08-18T02:09:27;11.57;;;6.30;;
69892;SDS011;61212;42.688;22.176;2022-08-18T02:11:54;10.52;;;5.18;;
69892;SDS011;61212;42.688;22.176;2022-08-18T02:14:20;10.38;;;6.18;;
69892;SDS011;61212;42.688;22.176;2022-08-18T02:16:47;14.55;;;6.53;;
69892;SDS011;61212;42.688;22.176;2022-08-18T02:19:13;8.93;;;6.45;;
69892;SDS011;61212;42.688;22.176;2022-08-18T02:21:39;12.57;;;5.53;;
69892;SDS011;61212;42.688;22.176;2022-08-18T02:24:05;12.82;;;6.50;;
69892;SDS011;61212;42.688;22.176;2022-08-18T02:26:31;10.40;;;6.15;;
69892;SDS011;61212;42.688;22.176;2022-08-18T02:28:58;9.88;;;6.07;;
69892;SDS011;61212;42.688;22.176;2022-08-18T02:31:24;10.32;;;6.22;;
69892;SDS011;61212;42.688;22.176;2022-08-18T02:33:50;9.68;;;6.47;;
69892;SDS011;61212;42.688;22.176;2022-08-18T02:36:17;10.48;;;6.22;;
69892;SDS011;61212;42.688;22.176;2022-08-18T02:38:43;14.05;;;6.60;;
69892;SDS011;61212;42.688;22.176;2022-08-18T02:41:10;10.48;;;6.70;;
69892;SDS011;61212;42.688;22.176;2022-08-18T02:43:37;10.00;;;6.80;;
69892;SDS011;61212;42.688;22.176;2022-08-18T02:46:04;8.02;;;6.22;;
69892;SDS011;61212;42.688;22.176;2022-08-18T02:48:31;11.57;;;6.78;;
69892;SDS011;61212;42.688;22.176;2022-08-18T02:50:59;12.55;;;6.93;;
69892;SDS011;61212;42.688;22.176;2022-08-18T02:53:26;13.77;;;6.07;;
69892;SDS011;61212;42.688;22.176;2022-08-18T02:55:53;17.60;;;7.13;;
69892;SDS011;61212;42.688;22.176;2022-08-18T02:58:19;11.77;;;7.63;;
69892;SDS011;61212;42.688;22.176;2022-08-18T03:00:46;10.93;;;7.32;;
69892;SDS011;61212;42.688;22.176;2022-08-18T03:03:12;14.48;;;6.70;;
69892;SDS011;61212;42.688;22.176;2022-08-18T03:05:38;10.80;;;6.60;;
69892;SDS011;61212;42.688;22.176;2022-08-18T03:08:05;11.43;;;7.28;;
69892;SDS011;61212;42.688;22.176;2022-08-18T03:10:31;13.23;;;6.47;;
69892;SDS011;61212;42.688;22.176;2022-08-18T03:12:57;15.23;;;6.60;;
69892;SDS011;61212;42.688;22.176;2022-08-18T03:15:23;14.45;;;6.47;;
69892;SDS011;61212;42.688;22.176;2022-08-18T03:17:49;13.40;;;6.38;;
69892;SDS011;61212;42.688;22.176;2022-08-18T03:20:15;14.90;;;7.18;;
69892;SDS011;61212;42.688;22.176;2022-08-18T03:22:42;10.05;;;6.60;;
69892;SDS011;61212;42.688;22.176;2022-08-18T03:25:08;9.90;;;6.30;;
69892;SDS011;61212;42.688;22.176;2022-08-18T03:27:34;14.13;;;6.07;;
69892;SDS011;61212;42.688;22.176;2022-08-18T03:30:00;13.82;;;6.97;;
69892;SDS011;61212;42.688;22.176;2022-08-18T03:32:28;10.93;;;6.25;;
69892;SDS011;61212;42.688;22.176;2022-08-18T03:35:04;13.63;;;6.80;;
69892;SDS011;61212;42.688;22.176;2022-08-18T03:37:30;9.68;;;7.10;;
69892;SDS011;61212;42.688;22.176;2022-08-18T03:39:57;10.18;;;6.53;;
69892;SDS011;61212;42.688;22.176;2022-08-18T03:42:23;11.30;;;6.93;;
69892;SDS011;61212;42.688;22.176;2022-08-18T03:44:49;14.75;;;7.10;;
69892;SDS011;61212;42.688;22.176;2022-08-18T03:47:16;12.57;;;7.68;;
69892;SDS011;61212;42.688;22.176;2022-08-18T03:49:43;8.85;;;6.45;;
69892;SDS011;61212;42.688;22.176;2022-08-18T03:52:10;10.25;;;7.57;;
69892;SDS011;61212;42.688;22.176;2022-08-18T03:54:36;12.50;;;7.88;;
69892;SDS011;61212;42.688;22.176;2022-08-18T03:57:03;13.05;;;6.70;;
69892;SDS011;61212;42.688;22.176;2022-08-18T03:59:29;11.80;;;6.95;;
69892;SDS011;61212;42.688;22.176;2022-08-18T04:01:55;11.25;;;6.93;;
69892;SDS011;61212;42.688;22.176;2022-08-18T04:04:23;13.70;;;7.55;;
69892;SDS011;61212;42.688;22.176;2022-08-18T04:06:54;15.30;;;7.63;;
69892;SDS011;61212;42.688;22.176;2022-08-18T04:09:25;12.02;;;6.43;;
69892;SDS011;61212;42.688;22.176;2022-08-18T04:11:51;13.18;;;7.30;;
69892;SDS011;61212;42.688;22.176;2022-08-18T04:14:19;13.35;;;6.68;;
69892;SDS011;61212;42.688;22.176;2022-08-18T04:16:46;14.73;;;7.75;;
69892;SDS011;61212;42.688;22.176;2022-08-18T04:19:13;15.25;;;7.57;;
69892;SDS011;61212;42.688;22.176;2022-08-18T04:21:41;14.45;;;6.55;;
69892;SDS011;61212;42.688;22.176;2022-08-18T04:24:08;13.48;;;7.57;;
69892;SDS011;61212;42.688;22.176;2022-08-18T04:26:35;13.10;;;8.15;;
69892;SDS011;61212;42.688;22.176;2022-08-18T04:29:03;13.57;;;7.50;;
69892;SDS011;61212;42.688;22.176;2022-08-18T04:31:30;11.90;;;7.90;;
69892;SDS011;61212;42.688;22.176;2022-08-18T04:33:57;14.07;;;8.88;;
69892;SDS011;61212;42.688;22.176;2022-08-18T04:36:23;14.23;;;8.30;;
69892;SDS011;61212;42.688;22.176;2022-08-18T04:38:50;13.93;;;7.97;;
69892;SDS011;61212;42.688;22.176;2022-08-18T04:41:18;18.73;;;8.75;;
69892;SDS011;61212;42.688;22.176;2022-08-18T04:43:48;27.55;;;9.02;;
69892;SDS011;61212;42.688;22.176;2022-08-18T04:46:15;20.88;;;9.35;;
69892;SDS011;61212;42.688;22.176;2022-08-18T04:48:41;20.83;;;9.00;;
69892;SDS011;61212;42.688;22.176;2022-08-18T04:51:09;20.70;;;7.45;;
69892;SDS011;61212;42.688;22.176;2022-08-18T04:53:36;15.75;;;8.63;;
69892;SDS011;61212;42.688;22.176;2022-08-18T04:56:18;14.88;;;7.80;;
69892;SDS011;61212;42.688;22.176;2022-08-18T04:59:00;12.85;;;8.63;;
69892;SDS011;61212;42.688;22.176;2022-08-18T05:01:29;11.10;;;8.50;;
69892;SDS011;61212;42.688;22.176;2022-08-18T05:04:08;13.68;;;8.75;;
69892;SDS011;61212;42.688;22.176;2022-08-18T05:06:34;15.20;;;9.07;;
69892;SDS011;61212;42.688;22.176;2022-08-18T05:09:02;18.50;;;8.50;;
69892;SDS011;61212;42.688;22.176;2022-08-18T05:11:29;12.20;;;7.65;;
69892;SDS011;61212;42.688;22.176;2022-08-18T05:14:00;15.73;;;9.43;;
69892;SDS011;61212;42.688;22.176;2022-08-18T05:16:26;14.00;;;8.15;;
69892;SDS011;61212;42.688;22.176;2022-08-18T05:21:55;10.75;;;8.30;;
69892;SDS011;61212;42.688;22.176;2022-08-18T05:24:21;18.05;;;9.10;;
69892;SDS011;61212;42.688;22.176;2022-08-18T05:26:50;16.95;;;8.98;;
69892;SDS011;61212;42.688;22.176;2022-08-18T05:29:18;13.68;;;8.82;;
69892;SDS011;61212;42.688;22.176;2022-08-18T05:31:48;14.82;;;10.73;;
69892;SDS011;61212;42.688;22.176;2022-08-18T05:37:24;19.42;;;11.27;;
69892;SDS011;61212;42.688;22.176;2022-08-18T05:42:20;20.85;;;11.45;;
69892;SDS011;61212;42.688;22.176;2022-08-18T05:44:48;24.73;;;11.85;;
69892;SDS011;61212;42.688;22.176;2022-08-18T05:49:43;19.15;;;11.15;;
69892;SDS011;61212;42.688;22.176;2022-08-18T05:52:14;17.88;;;11.05;;
69892;SDS011;61212;42.688;22.176;2022-08-18T05:54:44;17.83;;;11.40;;
69892;SDS011;61212;42.688;22.176;2022-08-18T05:57:32;20.30;;;12.07;;
69892;SDS011;61212;42.688;22.176;2022-08-18T06:00:03;17.77;;;11.65;;
69892;SDS011;61212;42.688;22.176;2022-08-18T06:02:34;16.70;;;11.25;;
69892;SDS011;61212;42.688;22.176;2022-08-18T06:05:05;21.02;;;11.68;;
69892;SDS011;61212;42.688;22.176;2022-08-18T06:07:40;15.02;;;10.75;;
69892;SDS011;61212;42.688;22.176;2022-08-18T06:10:08;15.85;;;11.07;;
69892;SDS011;61212;42.688;22.176;2022-08-18T06:23:07;13.23;;;9.07;;
69892;SDS011;61212;42.688;22.176;2022-08-18T06:28:19;16.20;;;9.50;;
69892;SDS011;61212;42.688;22.176;2022-08-18T06:35:49;21.60;;;9.25;;
69892;SDS011;61212;42.688;22.176;2022-08-18T06:41:08;14.05;;;9.27;;
69892;SDS011;61212;42.688;22.176;2022-08-18T06:43:40;15.50;;;7.85;;
69892;SDS011;61212;42.688;22.176;2022-08-18T06:46:08;21.48;;;15.35;;
69892;SDS011;61212;42.688;22.176;2022-08-18T06:48:39;11.23;;;8.82;;
69892;SDS011;61212;42.688;22.176;2022-08-18T06:51:06;8.18;;;5.68;;
69892;SDS011;61212;42.688;22.176;2022-08-18T06:56:19;10.55;;;6.03;;
69892;SDS011;61212;42.688;22.176;2022-08-18T06:58:46;10.35;;;7.40;;
69892;SDS011;61212;42.688;22.176;2022-08-18T07:01:12;14.50;;;8.13;;
69892;SDS011;61212;42.688;22.176;2022-08-18T07:08:32;14.45;;;12.07;;
69892;SDS011;61212;42.688;22.176;2022-08-18T07:11:13;16.75;;;10.45;;
69892;SDS011;61212;42.688;22.176;2022-08-18T07:13:44;12.48;;;7.00;;
69892;SDS011;61212;42.688;22.176;2022-08-18T07:16:30;10.10;;;6.28;;
69892;SDS011;61212;42.688;22.176;2022-08-18T07:22:06;12.90;;;6.25;;
69892;SDS011;61212;42.688;22.176;2022-08-18T07:24:34;13.40;;;6.28;;
69892;SDS011;61212;42.688;22.176;2022-08-18T07:27:13;9.57;;;5.88;;
69892;SDS011;61212;42.688;22.176;2022-08-18T07:32:28;8.85;;;6.25;;
69892;SDS011;61212;42.688;22.176;2022-08-18T07:34:58;8.43;;;6.32;;
69892;SDS011;61212;42.688;22.176;2022-08-18T07:37:31;11.38;;;6.35;;
69892;SDS011;61212;42.688;22.176;2022-08-18T07:40:05;11.37;;;5.90;;
69892;SDS011;61212;42.688;22.176;2022-08-18T07:44:59;11.05;;;6.50;;
69892;SDS011;61212;42.688;22.176;2022-08-18T07:49:54;19.20;;;7.28;;
69892;SDS011;61212;42.688;22.176;2022-08-18T07:52:29;7.95;;;5.40;;
69892;SDS011;61212;42.688;22.176;2022-08-18T07:55:05;7.88;;;5.75;;
69892;SDS011;61212;42.688;22.176;2022-08-18T08:00:38;9.10;;;5.35;;
69892;SDS011;61212;42.688;22.176;2022-08-18T08:11:13;11.90;;;6.07;;
69892;SDS011;61212;42.688;22.176;2022-08-18T08:13:32;10.10;;;5.75;;
69892;SDS011;61212;42.688;22.176;2022-08-18T08:21:19;7.78;;;6.18;;
69892;SDS011;61212;42.688;22.176;2022-08-18T08:23:50;10.27;;;7.65;;
69892;SDS011;61212;42.688;22.176;2022-08-18T08:29:05;12.43;;;5.90;;
69892;SDS011;61212;42.688;22.176;2022-08-18T08:31:42;11.32;;;5.70;;
69892;SDS011;61212;42.688;22.176;2022-08-18T08:34:15;12.02;;;6.43;;
69892;SDS011;61212;42.688;22.176;2022-08-18T08:36:45;9.68;;;5.68;;
69892;SDS011;61212;42.688;22.176;2022-08-18T08:41:41;13.60;;;9.15;;
69892;SDS011;61212;42.688;22.176;2022-08-18T08:44:18;8.15;;;5.25;;
69892;SDS011;61212;42.688;22.176;2022-08-18T08:46:47;7.72;;;5.25;;
69892;SDS011;61212;42.688;22.176;2022-08-18T08:51:58;7.97;;;5.15;;
69892;SDS011;61212;42.688;22.176;2022-08-18T08:56:51;8.65;;;4.97;;
69892;SDS011;61212;42.688;22.176;2022-08-18T08:59:19;21.92;;;5.68;;
69892;SDS011;61212;42.688;22.176;2022-08-18T09:12:10;14.68;;;5.30;;
69892;SDS011;61212;42.688;22.176;2022-08-18T09:17:28;16.83;;;9.75;;
69892;SDS011;61212;42.688;22.176;2022-08-18T09:25:43;17.55;;;13.77;;
69892;SDS011;61212;42.688;22.176;2022-08-18T09:28:17;9.73;;;5.50;;
69892;SDS011;61212;42.688;22.176;2022-08-18T09:30:51;10.18;;;4.47;;
69892;SDS011;61212;42.688;22.176;2022-08-18T09:36:00;9.13;;;4.53;;
69892;SDS011;61212;42.688;22.176;2022-08-18T09:38:30;6.15;;;4.20;;
69892;SDS011;61212;42.688;22.176;2022-08-18T09:41:18;13.05;;;4.07;;
69892;SDS011;61212;42.688;22.176;2022-08-18T09:44:11;6.25;;;4.70;;
69892;SDS011;61212;42.688;22.176;2022-08-18T09:51:54;7.20;;;4.00;;
69892;SDS011;61212;42.688;22.176;2022-08-18T09:54:24;8.73;;;4.03;;
69892;SDS011;61212;42.688;22.176;2022-08-18T10:02:02;10.45;;;4.18;;
69892;SDS011;61212;42.688;22.176;2022-08-18T10:04:42;13.60;;;7.23;;
69892;SDS011;61212;42.688;22.176;2022-08-18T10:17:31;5.10;;;3.90;;
69892;SDS011;61212;42.688;22.176;2022-08-18T10:23:02;9.80;;;4.32;;
69892;SDS011;61212;42.688;22.176;2022-08-18T10:27:56;6.93;;;3.95;;
69892;SDS011;61212;42.688;22.176;2022-08-18T10:32:54;6.22;;;3.53;;
69892;SDS011;61212;42.688;22.176;2022-08-18T10:38:11;8.55;;;3.60;;
69892;SDS011;61212;42.688;22.176;2022-08-18T10:40:39;8.32;;;3.97;;
69892;SDS011;61212;42.688;22.176;2022-08-18T10:43:17;6.72;;;3.72;;
69892;SDS011;61212;42.688;22.176;2022-08-18T10:45:48;7.63;;;3.92;;
69892;SDS011;61212;42.688;22.176;2022-08-18T10:48:21;10.60;;;4.53;;
69892;SDS011;61212;42.688;22.176;2022-08-18T10:56:20;6.30;;;4.15;;
69892;SDS011;61212;42.688;22.176;2022-08-18T11:01:37;5.53;;;4.15;;
69892;SDS011;61212;42.688;22.176;2022-08-18T11:04:26;7.13;;;4.25;;
69892;SDS011;61212;42.688;22.176;2022-08-18T11:07:26;13.23;;;4.05;;
69892;SDS011;61212;42.688;22.176;2022-08-18T11:09:48;6.35;;;4.38;;
69892;SDS011;61212;42.688;22.176;2022-08-18T11:12:14;7.57;;;4.20;;
69892;SDS011;61212;42.688;22.176;2022-08-18T11:14:52;6.57;;;4.13;;
69892;SDS011;61212;42.688;22.176;2022-08-18T11:19:48;8.75;;;4.30;;
69892;SDS011;61212;42.688;22.176;2022-08-18T11:22:31;5.78;;;4.35;;
69892;SDS011;61212;42.688;22.176;2022-08-18T11:24:58;6.97;;;4.30;;
69892;SDS011;61212;42.688;22.176;2022-08-18T11:27:25;8.35;;;4.55;;
69892;SDS011;61212;42.688;22.176;2022-08-18T11:29:54;7.00;;;4.40;;
69892;SDS011;61212;42.688;22.176;2022-08-18T11:37:34;6.20;;;4.18;;
69892;SDS011;61212;42.688;22.176;2022-08-18T11:40:04;6.78;;;3.78;;
69892;SDS011;61212;42.688;22.176;2022-08-18T11:42:32;5.65;;;4.00;;
69892;SDS011;61212;42.688;22.176;2022-08-18T11:45:03;11.18;;;4.20;;
69892;SDS011;61212;42.688;22.176;2022-08-18T11:47:31;5.72;;;4.40;;
69892;SDS011;61212;42.688;22.176;2022-08-18T11:50:08;10.13;;;5.30;;
69892;SDS011;61212;42.688;22.176;2022-08-18T11:52:45;6.15;;;4.47;;
69892;SDS011;61212;42.688;22.176;2022-08-18T11:55:17;12.43;;;4.60;;
69892;SDS011;61212;42.688;22.176;2022-08-18T12:03:08;59.78;;;22.23;;
69892;SDS011;61212;42.688;22.176;2022-08-18T12:08:47;8.85;;;4.68;;
69892;SDS011;61212;42.688;22.176;2022-08-18T12:13:44;13.35;;;5.13;;
69892;SDS011;61212;42.688;22.176;2022-08-18T12:16:29;10.73;;;5.22;;
69892;SDS011;61212;42.688;22.176;2022-08-18T12:18:57;17.67;;;7.63;;
69892;SDS011;61212;42.688;22.176;2022-08-18T12:24:27;7.40;;;4.55;;
69892;SDS011;61212;42.688;22.176;2022-08-18T12:26:54;6.05;;;4.30;;
69892;SDS011;61212;42.688;22.176;2022-08-18T12:29:20;10.38;;;4.90;;
69892;SDS011;61212;42.688;22.176;2022-08-18T12:31:47;15.32;;;7.75;;
69892;SDS011;61212;42.688;22.176;2022-08-18T12:34:17;6.32;;;4.18;;
69892;SDS011;61212;42.688;22.176;2022-08-18T12:36:45;13.80;;;6.10;;
69892;SDS011;61212;42.688;22.176;2022-08-18T12:39:11;6.38;;;4.43;;
69892;SDS011;61212;42.688;22.176;2022-08-18T12:41:38;8.93;;;3.67;;
69892;SDS011;61212;42.688;22.176;2022-08-18T12:44:04;11.38;;;5.10;;
69892;SDS011;61212;42.688;22.176;2022-08-18T12:46:30;8.60;;;4.57;;
69892;SDS011;61212;42.688;22.176;2022-08-18T12:48:57;5.30;;;3.83;;
69892;SDS011;61212;42.688;22.176;2022-08-18T12:54:29;9.60;;;3.90;;
69892;SDS011;61212;42.688;22.176;2022-08-18T12:56:56;8.82;;;4.15;;
69892;SDS011;61212;42.688;22.176;2022-08-18T12:59:23;10.07;;;4.00;;
69892;SDS011;61212;42.688;22.176;2022-08-18T13:01:50;6.65;;;4.38;;
69892;SDS011;61212;42.688;22.176;2022-08-18T13:04:19;5.03;;;3.53;;
69892;SDS011;61212;42.688;22.176;2022-08-18T13:06:50;5.75;;;2.92;;
69892;SDS011;61212;42.688;22.176;2022-08-18T13:09:17;7.57;;;3.00;;
69892;SDS011;61212;42.688;22.176;2022-08-18T13:11:44;5.47;;;2.72;;
69892;SDS011;61212;42.688;22.176;2022-08-18T13:14:10;5.75;;;4.03;;
69892;SDS011;61212;42.688;22.176;2022-08-18T13:16:38;5.20;;;2.55;;
69892;SDS011;61212;42.688;22.176;2022-08-18T13:19:05;5.28;;;2.80;;
69892;SDS011;61212;42.688;22.176;2022-08-18T13:21:31;4.53;;;2.35;;
69892;SDS011;61212;42.688;22.176;2022-08-18T13:23:57;5.90;;;2.70;;
69892;SDS011;61212;42.688;22.176;2022-08-18T13:26:28;4.22;;;2.42;;
69892;SDS011;61212;42.688;22.176;2022-08-18T13:28:55;6.63;;;2.70;;
69892;SDS011;61212;42.688;22.176;2022-08-18T13:31:22;3.67;;;2.75;;
69892;SDS011;61212;42.688;22.176;2022-08-18T13:33:49;5.80;;;2.60;;
69892;SDS011;61212;42.688;22.176;2022-08-18T13:36:15;3.65;;;2.60;;
69892;SDS011;61212;42.688;22.176;2022-08-18T13:38:41;3.83;;;2.83;;
69892;SDS011;61212;42.688;22.176;2022-08-18T13:41:08;3.47;;;2.40;;
69892;SDS011;61212;42.688;22.176;2022-08-18T13:43:35;6.05;;;2.67;;
69892;SDS011;61212;42.688;22.176;2022-08-18T13:46:05;3.28;;;1.98;;
69892;SDS011;61212;42.688;22.176;2022-08-18T13:48:32;6.38;;;2.15;;
69892;SDS011;61212;42.688;22.176;2022-08-18T13:50:58;11.50;;;2.42;;
69892;SDS011;61212;42.688;22.176;2022-08-18T13:53:25;11.95;;;2.40;;
69892;SDS011;61212;42.688;22.176;2022-08-18T13:55:52;6.47;;;1.85;;
69892;SDS011;61212;42.688;22.176;2022-08-18T13:58:21;3.22;;;1.83;;
69892;SDS011;61212;42.688;22.176;2022-08-18T14:00:48;5.25;;;1.73;;
69892;SDS011;61212;42.688;22.176;2022-08-18T14:03:18;2.55;;;1.45;;
69892;SDS011;61212;42.688;22.176;2022-08-18T14:05:47;2.65;;;1.60;;
69892;SDS011;61212;42.688;22.176;2022-08-18T14:08:13;3.67;;;1.80;;
69892;SDS011;61212;42.688;22.176;2022-08-18T14:10:40;6.47;;;1.90;;
69892;SDS011;61212;42.688;22.176;2022-08-18T14:13:06;3.72;;;2.03;;
69892;SDS011;61212;42.688;22.176;2022-08-18T14:15:33;2.10;;;1.23;;
69892;SDS011;61212;42.688;22.176;2022-08-18T14:18:03;3.35;;;2.03;;
69892;SDS011;61212;42.688;22.176;2022-08-18T14:20:30;2.42;;;1.40;;
69892;SDS011;61212;42.688;22.176;2022-08-18T14:23:15;4.60;;;1.88;;
69892;SDS011;61212;42.688;22.176;2022-08-18T14:26:00;3.47;;;1.83;;
69892;SDS011;61212;42.688;22.176;2022-08-18T14:28:44;3.25;;;1.70;;
69892;SDS011;61212;42.688;22.176;2022-08-18T14:31:11;2.65;;;1.50;;
69892;SDS011;61212;42.688;22.176;2022-08-18T14:33:37;3.30;;;1.92;;
69892;SDS011;61212;42.688;22.176;2022-08-18T14:36:03;5.40;;;1.85;;
69892;SDS011;61212;42.688;22.176;2022-08-18T14:38:30;4.97;;;2.25;;
69892;SDS011;61212;42.688;22.176;2022-08-18T14:40:57;3.00;;;1.92;;
69892;SDS011;61212;42.688;22.176;2022-08-18T14:43:24;4.53;;;1.90;;
69892;SDS011;61212;42.688;22.176;2022-08-18T14:45:51;3.50;;;2.10;;
69892;SDS011;61212;42.688;22.176;2022-08-18T14:48:18;8.70;;;2.33;;
69892;SDS011;61212;42.688;22.176;2022-08-18T14:50:52;4.43;;;2.10;;
69892;SDS011;61212;42.688;22.176;2022-08-18T14:53:21;4.28;;;2.03;;
69892;SDS011;61212;42.688;22.176;2022-08-18T14:55:48;3.35;;;2.17;;
69892;SDS011;61212;42.688;22.176;2022-08-18T14:58:19;3.42;;;2.13;;
69892;SDS011;61212;42.688;22.176;2022-08-18T15:00:45;6.47;;;1.92;;
69892;SDS011;61212;42.688;22.176;2022-08-18T15:03:11;2.75;;;1.98;;
69892;SDS011;61212;42.688;22.176;2022-08-18T15:05:37;4.57;;;1.92;;
69892;SDS011;61212;42.688;22.176;2022-08-18T15:08:03;5.53;;;2.28;;
69892;SDS011;61212;42.688;22.176;2022-08-18T15:10:30;5.45;;;2.25;;
69892;SDS011;61212;42.688;22.176;2022-08-18T15:12:57;5.07;;;2.17;;
69892;SDS011;61212;42.688;22.176;2022-08-18T15:15:24;7.55;;;2.30;;
69892;SDS011;61212;42.688;22.176;2022-08-18T15:17:51;5.80;;;2.08;;
69892;SDS011;61212;42.688;22.176;2022-08-18T15:20:17;5.97;;;2.25;;
69892;SDS011;61212;42.688;22.176;2022-08-18T15:22:44;4.43;;;2.45;;
69892;SDS011;61212;42.688;22.176;2022-08-18T15:25:29;11.23;;;2.45;;
69892;SDS011;61212;42.688;22.176;2022-08-18T15:28:15;6.05;;;2.42;;
69892;SDS011;61212;42.688;22.176;2022-08-18T15:30:44;5.75;;;2.65;;
69892;SDS011;61212;42.688;22.176;2022-08-18T15:33:13;7.03;;;2.50;;
69892;SDS011;61212;42.688;22.176;2022-08-18T15:35:40;28.00;;;2.85;;
69892;SDS011;61212;42.688;22.176;2022-08-18T15:38:07;3.75;;;2.10;;
69892;SDS011;61212;42.688;22.176;2022-08-18T15:40:37;5.75;;;2.13;;
69892;SDS011;61212;42.688;22.176;2022-08-18T15:43:10;6.18;;;2.33;;
69892;SDS011;61212;42.688;22.176;2022-08-18T15:45:40;3.38;;;2.25;;
69892;SDS011;61212;42.688;22.176;2022-08-18T15:48:09;6.07;;;2.33;;
69892;SDS011;61212;42.688;22.176;2022-08-18T15:50:35;3.88;;;2.00;;
69892;SDS011;61212;42.688;22.176;2022-08-18T15:53:02;4.05;;;2.35;;
69892;SDS011;61212;42.688;22.176;2022-08-18T15:55:30;4.78;;;1.95;;
69892;SDS011;61212;42.688;22.176;2022-08-18T15:57:57;7.20;;;2.40;;
69892;SDS011;61212;42.688;22.176;2022-08-18T16:00:24;6.15;;;2.83;;
69892;SDS011;61212;42.688;22.176;2022-08-18T16:02:53;4.00;;;2.35;;
69892;SDS011;61212;42.688;22.176;2022-08-18T16:05:22;5.75;;;2.60;;
69892;SDS011;61212;42.688;22.176;2022-08-18T16:07:51;10.93;;;2.53;;
69892;SDS011;61212;42.688;22.176;2022-08-18T16:10:19;6.78;;;2.85;;
69892;SDS011;61212;42.688;22.176;2022-08-18T16:12:46;6.05;;;2.38;;
69892;SDS011;61212;42.688;22.176;2022-08-18T16:15:13;6.30;;;2.50;;
69892;SDS011;61212;42.688;22.176;2022-08-18T16:17:41;7.55;;;3.03;;
69892;SDS011;61212;42.688;22.176;2022-08-18T16:20:07;3.28;;;2.22;;
69892;SDS011;61212;42.688;22.176;2022-08-18T16:22:34;9.98;;;2.53;;
69892;SDS011;61212;42.688;22.176;2022-08-18T16:25:01;8.18;;;2.60;;
69892;SDS011;61212;42.688;22.176;2022-08-18T16:27:28;8.55;;;2.90;;
69892;SDS011;61212;42.688;22.176;2022-08-18T16:29:55;10.23;;;3.60;;
69892;SDS011;61212;42.688;22.176;2022-08-18T16:32:21;12.82;;;3.72;;
69892;SDS011;61212;42.688;22.176;2022-08-18T16:34:47;12.40;;;3.03;;
69892;SDS011;61212;42.688;22.176;2022-08-18T16:37:13;6.07;;;2.78;;
69892;SDS011;61212;42.688;22.176;2022-08-18T16:39:39;9.00;;;2.65;;
69892;SDS011;61212;42.688;22.176;2022-08-18T16:42:04;5.82;;;3.00;;
69892;SDS011;61212;42.688;22.176;2022-08-18T16:44:31;6.57;;;2.38;;
69892;SDS011;61212;42.688;22.176;2022-08-18T16:46:59;7.38;;;3.00;;
69892;SDS011;61212;42.688;22.176;2022-08-18T16:49:27;8.73;;;2.88;;
69892;SDS011;61212;42.688;22.176;2022-08-18T16:51:53;6.38;;;3.30;;
69892;SDS011;61212;42.688;22.176;2022-08-18T16:54:19;12.13;;;4.78;;
69892;SDS011;61212;42.688;22.176;2022-08-18T16:56:45;14.93;;;6.20;;
69892;SDS011;61212;42.688;22.176;2022-08-18T16:59:11;9.05;;;4.53;;
69892;SDS011;61212;42.688;22.176;2022-08-18T17:01:55;6.93;;;3.30;;
69892;SDS011;61212;42.688;22.176;2022-08-18T17:04:39;5.07;;;2.65;;
69892;SDS011;61212;42.688;22.176;2022-08-18T17:07:06;3.95;;;2.40;;
69892;SDS011;61212;42.688;22.176;2022-08-18T17:09:32;9.52;;;4.05;;
69892;SDS011;61212;42.688;22.176;2022-08-18T17:11:58;12.77;;;4.97;;
69892;SDS011;61212;42.688;22.176;2022-08-18T17:14:25;7.63;;;3.83;;
69892;SDS011;61212;42.688;22.176;2022-08-18T17:16:53;11.43;;;4.25;;
69892;SDS011;61212;42.688;22.176;2022-08-18T17:19:21;10.82;;;3.95;;
69892;SDS011;61212;42.688;22.176;2022-08-18T17:21:48;5.40;;;3.00;;
69892;SDS011;61212;42.688;22.176;2022-08-18T17:24:14;6.40;;;3.33;;